sensor_id;sensor_type;location;lat;lon;timestamp;P1;P2;P0
69222;PMS7003;56514;51.816;-0.026;2022-10-31T00:00:07;0.25;0.25;0.25
69222;PMS7003;56514;51.816;-0.026;2022-10-31T00:02:53;1.00;1.00;0.00
69222;PMS7003;56514;51.816;-0.026;2022-10-31T00:06:02;1.25;1.25;0.50
69222;PMS7003;56514;51.816;-0.026;2022-10-31T00:09:10;1.75;0.75;0.50
69222;PMS7003;56514;51.816;-0.026;2022-10-31T00:12:15;1.00;1.00;1.00
69222;PMS7003;56514;51.816;-0.026;2022-10-31T00:15:25;1.00;1.00;1.00
69222;PMS7003;56514;51.816;-0.026;2022-10-31T00:18:34;2.00;2.00;0.50
69222;PMS7003;56514;51.816;-0.026;2022-10-31T00:21:43;1.00;1.00;1.00
69222;PMS7003;56514;51.816;-0.026;2022-10-31T00:24:52;1.50;1.50;1.00
69222;PMS7003;56514;51.816;-0.026;2022-10-31T00:28:01;1.00;1.00;0.25
69222;PMS7003;56514;51.816;-0.026;2022-10-31T00:31:11;2.00;2.00;1.00
69222;PMS7003;56514;51.816;-0.026;2022-10-31T00:34:21;0.25;0.25;0.25
69222;PMS7003;56514;51.816;-0.026;2022-10-31T00:37:30;0.00;0.00;0.00
69222;PMS7003;56514;51.816;-0.026;2022-10-31T00:40:39;2.00;2.00;2.00
69222;PMS7003;56514;51.816;-0.026;2022-10-31T00:43:47;1.25;1.25;0.25
69222;PMS7003;56514;51.816;-0.026;2022-10-31T00:46:33;2.00;2.00;1.00
69222;PMS7003;56514;51.816;-0.026;2022-10-31T00:49:18;1.00;1.00;1.00
69222;PMS7003;56514;51.816;-0.026;2022-10-31T00:52:03;0.50;0.50;0.25
69222;PMS7003;56514;51.816;-0.026;2022-10-31T00:54:48;0.00;0.00;0.00
69222;PMS7003;56514;51.816;-0.026;2022-10-31T00:57:32;1.50;1.50;1.00
69222;PMS7003;56514;51.816;-0.026;2022-10-31T01:00:17;0.00;0.00;0.00
69222;PMS7003;56514;51.816;-0.026;2022-10-31T01:03:02;0.00;0.00;0.00
69222;PMS7003;56514;51.816;-0.026;2022-10-31T01:05:58;0.00;0.00;0.00
69222;PMS7003;56514;51.816;-0.026;2022-10-31T01:08:46;0.00;0.00;0.00
69222;PMS7003;56514;51.816;-0.026;2022-10-31T01:11:32;0.00;0.00;0.00
69222;PMS7003;56514;51.816;-0.026;2022-10-31T01:14:17;1.50;1.50;1.00
69222;PMS7003;56514;51.816;-0.026;2022-10-31T01:17:02;1.00;1.00;1.00
69222;PMS7003;56514;51.816;-0.026;2022-10-31T01:19:47;0.75;0.75;0.50
69222;PMS7003;56514;51.816;-0.026;2022-10-31T01:22:33;0.00;0.00;0.00
69222;PMS7003;56514;51.816;-0.026;2022-10-31T01:25:18;0.00;0.00;0.00
69222;PMS7003;56514;51.816;-0.026;2022-10-31T01:28:03;0.50;0.50;0.25
69222;PMS7003;56514;51.816;-0.026;2022-10-31T01:30:48;0.00;0.00;0.00
69222;PMS7003;56514;51.816;-0.026;2022-10-31T01:33:33;1.00;1.00;1.00
69222;PMS7003;56514;51.816;-0.026;2022-10-31T01:39:15;2.00;1.00;1.00
69222;PMS7003;56514;51.816;-0.026;2022-10-31T01:42:00;1.00;1.00;0.25
69222;PMS7003;56514;51.816;-0.026;2022-10-31T01:44:54;1.00;1.00;0.00
69222;PMS7003;56514;51.816;-0.026;2022-10-31T01:47:43;0.25;0.25;0.25
69222;PMS7003;56514;51.816;-0.026;2022-10-31T01:50:32;1.00;1.00;1.00
69222;PMS7003;56514;51.816;-0.026;2022-10-31T01:53:22;0.00;0.00;0.00
69222;PMS7003;56514;51.816;-0.026;2022-10-31T01:56:08;1.00;1.00;1.00
69222;PMS7003;56514;51.816;-0.026;2022-10-31T01:58:54;0.00;0.00;0.00
69222;PMS7003;56514;51.816;-0.026;2022-10-31T02:01:42;0.00;0.00;0.00
69222;PMS7003;56514;51.816;-0.026;2022-10-31T02:04:27;0.00;0.00;0.00
69222;PMS7003;56514;51.816;-0.026;2022-10-31T02:07:20;0.75;0.75;0.75
69222;PMS7003;56514;51.816;-0.026;2022-10-31T02:10:11;1.25;1.25;1.00
69222;PMS7003;56514;51.816;-0.026;2022-10-31T02:12:57;1.00;1.00;0.75
69222;PMS7003;56514;51.816;-0.026;2022-10-31T02:15:44;0.00;0.00;0.00
69222;PMS7003;56514;51.816;-0.026;2022-10-31T02:18:31;0.25;0.25;0.25
69222;PMS7003;56514;51.816;-0.026;2022-10-31T02:24:31;0.50;0.50;0.50
69222;PMS7003;56514;51.816;-0.026;2022-10-31T02:27:46;1.00;1.00;0.75
69222;PMS7003;56514;51.816;-0.026;2022-10-31T02:37:03;1.00;1.00;1.00
69222;PMS7003;56514;51.816;-0.026;2022-10-31T02:42:57;0.00;0.00;0.00
69222;PMS7003;56514;51.816;-0.026;2022-10-31T02:48:53;0.25;0.25;0.25
69222;PMS7003;56514;51.816;-0.026;2022-10-31T02:51:43;1.00;1.00;1.00
69222;PMS7003;56514;51.816;-0.026;2022-10-31T02:54:30;1.00;1.00;0.75
69222;PMS7003;56514;51.816;-0.026;2022-10-31T02:57:18;1.75;1.75;1.00
69222;PMS7003;56514;51.816;-0.026;2022-10-31T03:00:08;0.00;0.00;0.00
69222;PMS7003;56514;51.816;-0.026;2022-10-31T03:05:55;1.50;1.50;1.00
69222;PMS7003;56514;51.816;-0.026;2022-10-31T03:09:00;1.00;1.00;1.00
69222;PMS7003;56514;51.816;-0.026;2022-10-31T03:17:49;1.25;1.25;1.00
69222;PMS7003;56514;51.816;-0.026;2022-10-31T03:20:45;2.00;2.00;1.75
69222;PMS7003;56514;51.816;-0.026;2022-10-31T03:23:36;2.00;2.00;1.00
69222;PMS7003;56514;51.816;-0.026;2022-10-31T03:26:24;4.00;4.00;2.00
69222;PMS7003;56514;51.816;-0.026;2022-10-31T03:29:11;2.00;2.00;2.00
69222;PMS7003;56514;51.816;-0.026;2022-10-31T03:32:05;6.75;4.00;2.00
69222;PMS7003;56514;51.816;-0.026;2022-10-31T03:34:55;2.75;2.75;2.50
69222;PMS7003;56514;51.816;-0.026;2022-10-31T03:37:47;3.00;3.00;2.50
69222;PMS7003;56514;51.816;-0.026;2022-10-31T03:40:36;4.50;4.50;3.00
69222;PMS7003;56514;51.816;-0.026;2022-10-31T03:43:26;4.75;4.75;4.00
69222;PMS7003;56514;51.816;-0.026;2022-10-31T03:46:16;4.00;4.00;2.00
69222;PMS7003;56514;51.816;-0.026;2022-10-31T03:49:02;2.00;2.00;1.25
69222;PMS7003;56514;51.816;-0.026;2022-10-31T03:54:51;4.25;4.25;3.00
69222;PMS7003;56514;51.816;-0.026;2022-10-31T04:00:40;8.00;8.00;5.00
69222;PMS7003;56514;51.816;-0.026;2022-10-31T04:03:30;3.50;3.50;2.50
69222;PMS7003;56514;51.816;-0.026;2022-10-31T04:06:18;5.00;5.00;3.00
69222;PMS7003;56514;51.816;-0.026;2022-10-31T04:09:06;2.00;2.00;1.00
69222;PMS7003;56514;51.816;-0.026;2022-10-31T04:11:54;4.00;4.00;2.00
69222;PMS7003;56514;51.816;-0.026;2022-10-31T04:14:44;2.00;2.00;2.00
69222;PMS7003;56514;51.816;-0.026;2022-10-31T04:17:33;3.00;3.00;1.50
69222;PMS7003;56514;51.816;-0.026;2022-10-31T04:20:59;2.00;2.00;2.00
69222;PMS7003;56514;51.816;-0.026;2022-10-31T04:23:34;2.50;2.50;2.00
69222;PMS7003;56514;51.816;-0.026;2022-10-31T04:26:20;4.25;4.25;2.00
69222;PMS7003;56514;51.816;-0.026;2022-10-31T04:29:05;4.00;4.00;2.50
69222;PMS7003;56514;51.816;-0.026;2022-10-31T04:31:50;3.00;3.00;2.00
69222;PMS7003;56514;51.816;-0.026;2022-10-31T04:34:35;6.25;4.75;4.00
69222;PMS7003;56514;51.816;-0.026;2022-10-31T04:37:20;3.00;3.00;2.00
69222;PMS7003;56514;51.816;-0.026;2022-10-31T04:40:05;4.00;4.00;2.00
69222;PMS7003;56514;51.816;-0.026;2022-10-31T04:42:51;3.00;3.00;2.00
69222;PMS7003;56514;51.816;-0.026;2022-10-31T04:45:37;3.00;3.00;1.75
69222;PMS7003;56514;51.816;-0.026;2022-10-31T04:48:22;1.50;1.50;1.25
69222;PMS7003;56514;51.816;-0.026;2022-10-31T04:51:07;2.00;2.00;1.00
69222;PMS7003;56514;51.816;-0.026;2022-10-31T04:53:52;1.00;1.00;1.00
69222;PMS7003;56514;51.816;-0.026;2022-10-31T04:56:37;1.00;1.00;1.00
69222;PMS7003;56514;51.816;-0.026;2022-10-31T04:59:22;1.00;1.00;1.00
69222;PMS7003;56514;51.816;-0.026;2022-10-31T05:02:07;0.75;0.75;0.25
69222;PMS7003;56514;51.816;-0.026;2022-10-31T05:04:52;2.00;2.00;1.75
69222;PMS7003;56514;51.816;-0.026;2022-10-31T05:07:43;1.00;1.00;0.75
69222;PMS7003;56514;51.816;-0.026;2022-10-31T05:10:30;1.75;1.75;1.00
69222;PMS7003;56514;51.816;-0.026;2022-10-31T05:13:17;1.25;1.25;0.75
69222;PMS7003;56514;51.816;-0.026;2022-10-31T05:16:02;1.00;1.00;0.25
69222;PMS7003;56514;51.816;-0.026;2022-10-31T05:18:48;0.00;0.00;0.00
69222;PMS7003;56514;51.816;-0.026;2022-10-31T05:21:32;0.50;0.50;0.50
69222;PMS7003;56514;51.816;-0.026;2022-10-31T05:24:18;1.00;1.00;1.00
69222;PMS7003;56514;51.816;-0.026;2022-10-31T05:27:06;0.75;0.75;0.50
69222;PMS7003;56514;51.816;-0.026;2022-10-31T05:29:50;1.75;1.75;1.00
69222;PMS7003;56514;51.816;-0.026;2022-10-31T05:32:42;1.00;1.00;1.00
69222;PMS7003;56514;51.816;-0.026;2022-10-31T05:35:30;1.25;1.25;1.00
69222;PMS7003;56514;51.816;-0.026;2022-10-31T05:38:17;2.00;2.00;1.00
69222;PMS7003;56514;51.816;-0.026;2022-10-31T05:41:02;4.00;4.00;2.00
69222;PMS7003;56514;51.816;-0.026;2022-10-31T05:43:47;1.50;1.50;1.50
69222;PMS7003;56514;51.816;-0.026;2022-10-31T05:46:31;1.00;1.00;1.00
69222;PMS7003;56514;51.816;-0.026;2022-10-31T05:49:16;2.00;2.00;2.00
69222;PMS7003;56514;51.816;-0.026;2022-10-31T05:52:02;1.25;1.25;1.00
69222;PMS7003;56514;51.816;-0.026;2022-10-31T05:54:47;1.00;1.00;1.00
69222;PMS7003;56514;51.816;-0.026;2022-10-31T05:57:32;1.00;1.00;1.00
69222;PMS7003;56514;51.816;-0.026;2022-10-31T06:00:18;1.75;1.75;1.00
69222;PMS7003;56514;51.816;-0.026;2022-10-31T06:03:06;2.00;2.00;1.00
69222;PMS7003;56514;51.816;-0.026;2022-10-31T06:05:52;0.50;0.50;0.50
69222;PMS7003;56514;51.816;-0.026;2022-10-31T06:08:37;2.50;2.00;1.75
69222;PMS7003;56514;51.816;-0.026;2022-10-31T06:11:22;1.00;1.00;1.00
69222;PMS7003;56514;51.816;-0.026;2022-10-31T06:14:07;1.50;1.50;1.00
69222;PMS7003;56514;51.816;-0.026;2022-10-31T06:16:53;1.00;1.00;1.00
69222;PMS7003;56514;51.816;-0.026;2022-10-31T06:19:39;1.00;1.00;0.75
69222;PMS7003;56514;51.816;-0.026;2022-10-31T06:22:24;2.00;2.00;1.00
69222;PMS7003;56514;51.816;-0.026;2022-10-31T06:25:08;1.00;1.00;0.75
69222;PMS7003;56514;51.816;-0.026;2022-10-31T06:27:53;0.00;0.00;0.00
69222;PMS7003;56514;51.816;-0.026;2022-10-31T06:30:38;0.25;0.25;0.25
69222;PMS7003;56514;51.816;-0.026;2022-10-31T06:33:23;0.00;0.00;0.00
69222;PMS7003;56514;51.816;-0.026;2022-10-31T06:36:09;0.00;0.00;0.00
69222;PMS7003;56514;51.816;-0.026;2022-10-31T06:38:54;0.00;0.00;0.00
69222;PMS7003;56514;51.816;-0.026;2022-10-31T06:41:39;0.00;0.00;0.00
69222;PMS7003;56514;51.816;-0.026;2022-10-31T06:44:24;0.25;0.25;0.00
69222;PMS7003;56514;51.816;-0.026;2022-10-31T06:47:09;0.00;0.00;0.00
69222;PMS7003;56514;51.816;-0.026;2022-10-31T06:49:54;0.50;0.50;0.00
69222;PMS7003;56514;51.816;-0.026;2022-10-31T06:52:38;0.00;0.00;0.00
69222;PMS7003;56514;51.816;-0.026;2022-10-31T06:55:24;0.00;0.00;0.00
69222;PMS7003;56514;51.816;-0.026;2022-10-31T06:58:10;0.25;0.25;0.25
69222;PMS7003;56514;51.816;-0.026;2022-10-31T07:00:58;0.00;0.00;0.00
69222;PMS7003;56514;51.816;-0.026;2022-10-31T07:03:44;0.75;0.75;0.50
69222;PMS7003;56514;51.816;-0.026;2022-10-31T07:06:30;1.25;1.25;1.25
69222;PMS7003;56514;51.816;-0.026;2022-10-31T07:09:16;1.25;1.25;1.00
69222;PMS7003;56514;51.816;-0.026;2022-10-31T07:12:01;4.25;4.25;4.00
69222;PMS7003;56514;51.816;-0.026;2022-10-31T07:14:46;6.25;4.75;2.50
69222;PMS7003;56514;51.816;-0.026;2022-10-31T07:17:30;5.00;5.00;4.00
69222;PMS7003;56514;51.816;-0.026;2022-10-31T07:20:17;2.50;2.50;2.00
69222;PMS7003;56514;51.816;-0.026;2022-10-31T07:23:03;1.25;1.25;1.00
69222;PMS7003;56514;51.816;-0.026;2022-10-31T07:25:48;0.25;0.25;0.25
69222;PMS7003;56514;51.816;-0.026;2022-10-31T07:28:42;2.00;2.00;1.00
69222;PMS7003;56514;51.816;-0.026;2022-10-31T07:31:27;1.00;1.00;1.00
69222;PMS7003;56514;51.816;-0.026;2022-10-31T07:34:12;1.00;1.00;1.00
69222;PMS7003;56514;51.816;-0.026;2022-10-31T07:36:57;1.25;1.25;1.25
69222;PMS7003;56514;51.816;-0.026;2022-10-31T07:39:45;2.00;2.00;1.25
69222;PMS7003;56514;51.816;-0.026;2022-10-31T07:42:43;5.00;5.00;4.00
69222;PMS7003;56514;51.816;-0.026;2022-10-31T07:45:29;4.50;4.50;4.00
69222;PMS7003;56514;51.816;-0.026;2022-10-31T07:48:17;4.25;4.25;2.50
69222;PMS7003;56514;51.816;-0.026;2022-10-31T07:51:02;6.50;6.50;4.00
69222;PMS7003;56514;51.816;-0.026;2022-10-31T07:53:47;4.00;4.00;3.00
69222;PMS7003;56514;51.816;-0.026;2022-10-31T07:56:31;4.00;4.00;2.00
69222;PMS7003;56514;51.816;-0.026;2022-10-31T07:59:17;2.50;2.50;2.00
69222;PMS7003;56514;51.816;-0.026;2022-10-31T08:02:02;4.75;4.75;4.00
69222;PMS7003;56514;51.816;-0.026;2022-10-31T08:04:47;2.00;2.00;1.00
69222;PMS7003;56514;51.816;-0.026;2022-10-31T08:07:35;1.00;1.00;1.00
69222;PMS7003;56514;51.816;-0.026;2022-10-31T08:10:22;4.00;4.00;3.00
69222;PMS7003;56514;51.816;-0.026;2022-10-31T08:13:11;0.00;0.00;0.00
69222;PMS7003;56514;51.816;-0.026;2022-10-31T08:15:58;4.50;4.50;3.00
69222;PMS7003;56514;51.816;-0.026;2022-10-31T08:18:48;2.00;2.00;1.75
69222;PMS7003;56514;51.816;-0.026;2022-10-31T08:21:32;2.00;2.00;1.75
69222;PMS7003;56514;51.816;-0.026;2022-10-31T08:24:17;2.50;2.50;0.50
69222;PMS7003;56514;51.816;-0.026;2022-10-31T08:27:03;3.00;3.00;1.75
69222;PMS7003;56514;51.816;-0.026;2022-10-31T08:29:47;2.00;2.00;1.00
69222;PMS7003;56514;51.816;-0.026;2022-10-31T08:32:32;2.50;2.50;2.00
69222;PMS7003;56514;51.816;-0.026;2022-10-31T08:35:17;2.50;2.50;2.00
69222;PMS7003;56514;51.816;-0.026;2022-10-31T08:38:02;2.00;2.00;1.00
69222;PMS7003;56514;51.816;-0.026;2022-10-31T08:40:48;3.50;3.50;1.75
69222;PMS7003;56514;51.816;-0.026;2022-10-31T08:43:34;2.00;2.00;2.00
69222;PMS7003;56514;51.816;-0.026;2022-10-31T08:46:18;1.50;1.50;1.00
69222;PMS7003;56514;51.816;-0.026;2022-10-31T08:49:03;4.25;3.00;1.00
69222;PMS7003;56514;51.816;-0.026;2022-10-31T08:51:49;2.00;2.00;2.00
69222;PMS7003;56514;51.816;-0.026;2022-10-31T08:54:34;3.25;1.50;1.00
69222;PMS7003;56514;51.816;-0.026;2022-10-31T08:57:19;2.00;2.00;1.50
69222;PMS7003;56514;51.816;-0.026;2022-10-31T09:00:03;1.00;1.00;1.00
69222;PMS7003;56514;51.816;-0.026;2022-10-31T09:02:59;1.00;1.00;0.50
69222;PMS7003;56514;51.816;-0.026;2022-10-31T09:05:46;1.75;1.75;1.00
69222;PMS7003;56514;51.816;-0.026;2022-10-31T09:08:31;1.00;1.00;1.00
69222;PMS7003;56514;51.816;-0.026;2022-10-31T09:11:17;1.00;1.00;1.00
69222;PMS7003;56514;51.816;-0.026;2022-10-31T09:14:02;2.00;2.00;1.00
69222;PMS7003;56514;51.816;-0.026;2022-10-31T09:16:47;1.75;1.75;1.00
69222;PMS7003;56514;51.816;-0.026;2022-10-31T09:19:32;3.00;3.00;1.50
69222;PMS7003;56514;51.816;-0.026;2022-10-31T09:22:17;1.00;1.00;1.00
69222;PMS7003;56514;51.816;-0.026;2022-10-31T09:25:02;1.25;1.25;1.00
69222;PMS7003;56514;51.816;-0.026;2022-10-31T09:27:47;0.50;0.50;0.50
69222;PMS7003;56514;51.816;-0.026;2022-10-31T09:30:33;1.00;1.00;1.00
69222;PMS7003;56514;51.816;-0.026;2022-10-31T09:33:19;2.00;2.00;2.00
69222;PMS7003;56514;51.816;-0.026;2022-10-31T09:36:05;1.25;1.25;1.25
69222;PMS7003;56514;51.816;-0.026;2022-10-31T09:38:51;1.00;1.00;1.00
69222;PMS7003;56514;51.816;-0.026;2022-10-31T09:44:31;2.00;2.00;1.00
69222;PMS7003;56514;51.816;-0.026;2022-10-31T09:47:37;2.00;2.00;2.00
69222;PMS7003;56514;51.816;-0.026;2022-10-31T09:56:30;2.00;2.00;2.00
69222;PMS7003;56514;51.816;-0.026;2022-10-31T09:59:23;2.50;1.75;1.00
69222;PMS7003;56514;51.816;-0.026;2022-10-31T10:05:24;1.00;1.00;1.00
69222;PMS7003;56514;51.816;-0.026;2022-10-31T10:08:21;2.00;2.00;1.25
69222;PMS7003;56514;51.816;-0.026;2022-10-31T10:11:33;1.00;1.00;1.00
69222;PMS7003;56514;51.816;-0.026;2022-10-31T10:14:39;1.25;1.25;1.25
69222;PMS7003;56514;51.816;-0.026;2022-10-31T10:17:45;1.00;1.00;1.00
69222;PMS7003;56514;51.816;-0.026;2022-10-31T10:26:46;1.75;1.75;1.75
69222;PMS7003;56514;51.816;-0.026;2022-10-31T10:32:58;3.50;3.50;2.25
69222;PMS7003;56514;51.816;-0.026;2022-10-31T10:35:52;2.00;2.00;2.00
69222;PMS7003;56514;51.816;-0.026;2022-10-31T10:38:53;5.25;5.25;3.00
69222;PMS7003;56514;51.816;-0.026;2022-10-31T10:41:41;3.50;3.50;3.50
69222;PMS7003;56514;51.816;-0.026;2022-10-31T10:44:31;3.00;3.00;3.00
69222;PMS7003;56514;51.816;-0.026;2022-10-31T10:47:42;3.00;3.00;3.00
69222;PMS7003;56514;51.816;-0.026;2022-10-31T10:50:32;4.75;4.75;2.75
69222;PMS7003;56514;51.816;-0.026;2022-10-31T10:59:45;3.00;3.00;2.25
69222;PMS7003;56514;51.816;-0.026;2022-10-31T11:02:31;2.00;2.00;1.25
69222;PMS7003;56514;51.816;-0.026;2022-10-31T11:05:29;3.50;3.50;3.00
69222;PMS7003;56514;51.816;-0.026;2022-10-31T11:08:35;5.50;5.50;5.00
69222;PMS7003;56514;51.816;-0.026;2022-10-31T11:11:28;3.25;3.25;3.00
69222;PMS7003;56514;51.816;-0.026;2022-10-31T11:14:19;3.00;3.00;3.00
69222;PMS7003;56514;51.816;-0.026;2022-10-31T11:36:43;2.00;2.00;2.00
69222;PMS7003;56514;51.816;-0.026;2022-10-31T11:39:28;1.75;1.75;1.75
69222;PMS7003;56514;51.816;-0.026;2022-10-31T11:42:13;2.00;2.00;2.00
69222;PMS7003;56514;51.816;-0.026;2022-10-31T11:44:58;2.00;2.00;1.00
69222;PMS7003;56514;51.816;-0.026;2022-10-31T11:47:47;1.00;1.00;1.00
69222;PMS7003;56514;51.816;-0.026;2022-10-31T11:50:39;1.75;1.75;1.75
69222;PMS7003;56514;51.816;-0.026;2022-10-31T11:53:27;2.25;2.25;2.00
69222;PMS7003;56514;51.816;-0.026;2022-10-31T11:56:17;1.20;1.20;1.20
69222;PMS7003;56514;51.816;-0.026;2022-10-31T11:59:04;2.00;2.00;2.00
69222;PMS7003;56514;51.816;-0.026;2022-10-31T12:02:00;1.20;1.20;1.00
69222;PMS7003;56514;51.816;-0.026;2022-10-31T12:04:46;2.00;2.00;2.00
69222;PMS7003;56514;51.816;-0.026;2022-10-31T12:07:36;2.00;2.00;2.00
69222;PMS7003;56514;51.816;-0.026;2022-10-31T12:10:23;1.00;1.00;1.00
69222;PMS7003;56514;51.816;-0.026;2022-10-31T12:13:26;1.00;1.00;0.75
69222;PMS7003;56514;51.816;-0.026;2022-10-31T12:16:28;1.00;1.00;1.00
69222;PMS7003;56514;51.816;-0.026;2022-10-31T12:46:56;1.00;1.00;1.00
69222;PMS7003;56514;51.816;-0.026;2022-10-31T12:50:12;1.00;1.00;1.00
69222;PMS7003;56514;51.816;-0.026;2022-10-31T12:59:32;0.60;0.60;0.60
69222;PMS7003;56514;51.816;-0.026;2022-10-31T13:02:35;0.00;0.00;0.00
69222;PMS7003;56514;51.816;-0.026;2022-10-31T13:05:29;0.00;0.00;0.00
69222;PMS7003;56514;51.816;-0.026;2022-10-31T13:08:26;0.40;0.40;0.40
69222;PMS7003;56514;51.816;-0.026;2022-10-31T13:14:25;0.00;0.00;0.00
69222;PMS7003;56514;51.816;-0.026;2022-10-31T13:17:51;0.00;0.00;0.00
69222;PMS7003;56514;51.816;-0.026;2022-10-31T13:20:34;0.20;0.20;0.20
69222;PMS7003;56514;51.816;-0.026;2022-10-31T13:23:32;0.00;0.00;0.00
69222;PMS7003;56514;51.816;-0.026;2022-10-31T13:26:37;1.00;1.00;1.00
69222;PMS7003;56514;51.816;-0.026;2022-10-31T13:30:18;0.00;0.00;0.00
69222;PMS7003;56514;51.816;-0.026;2022-10-31T13:32:50;0.00;0.00;0.00
69222;PMS7003;56514;51.816;-0.026;2022-10-31T13:38:33;0.00;0.00;0.00
69222;PMS7003;56514;51.816;-0.026;2022-10-31T13:42:04;0.60;0.60;0.00
69222;PMS7003;56514;51.816;-0.026;2022-10-31T13:44:42;0.00;0.00;0.00
69222;PMS7003;56514;51.816;-0.026;2022-10-31T13:47:28;0.00;0.00;0.00
69222;PMS7003;56514;51.816;-0.026;2022-10-31T13:53:10;0.00;0.00;0.00
69222;PMS7003;56514;51.816;-0.026;2022-10-31T13:58:56;0.00;0.00;0.00
69222;PMS7003;56514;51.816;-0.026;2022-10-31T14:02:18;0.00;0.00;0.00
69222;PMS7003;56514;51.816;-0.026;2022-10-31T14:05:27;0.00;0.00;0.00
69222;PMS7003;56514;51.816;-0.026;2022-10-31T14:08:18;0.60;0.60;0.00
69222;PMS7003;56514;51.816;-0.026;2022-10-31T14:11:07;0.00;0.00;0.00
69222;PMS7003;56514;51.816;-0.026;2022-10-31T14:14:02;0.00;0.00;0.00
69222;PMS7003;56514;51.816;-0.026;2022-10-31T14:16:52;0.00;0.00;0.00
69222;PMS7003;56514;51.816;-0.026;2022-10-31T14:19:40;0.00;0.00;0.00
69222;PMS7003;56514;51.816;-0.026;2022-10-31T14:22:28;0.00;0.00;0.00
69222;PMS7003;56514;51.816;-0.026;2022-10-31T14:25:31;0.00;0.00;0.00
69222;PMS7003;56514;51.816;-0.026;2022-10-31T14:28:21;0.00;0.00;0.00
69222;PMS7003;56514;51.816;-0.026;2022-10-31T14:31:30;0.00;0.00;0.00
69222;PMS7003;56514;51.816;-0.026;2022-10-31T14:34:28;0.00;0.00;0.00
69222;PMS7003;56514;51.816;-0.026;2022-10-31T14:43:30;0.00;0.00;0.00
69222;PMS7003;56514;51.816;-0.026;2022-10-31T14:49:33;0.00;0.00;0.00
69222;PMS7003;56514;51.816;-0.026;2022-10-31T14:52:34;0.00;0.00;0.00
69222;PMS7003;56514;51.816;-0.026;2022-10-31T14:55:21;0.00;0.00;0.00
69222;PMS7003;56514;51.816;-0.026;2022-10-31T14:58:09;0.00;0.00;0.00
69222;PMS7003;56514;51.816;-0.026;2022-10-31T15:00:55;0.00;0.00;0.00
69222;PMS7003;56514;51.816;-0.026;2022-10-31T15:03:42;0.00;0.00;0.00
69222;PMS7003;56514;51.816;-0.026;2022-10-31T15:06:31;0.00;0.00;0.00
69222;PMS7003;56514;51.816;-0.026;2022-10-31T15:09:28;0.80;0.80;0.40
69222;PMS7003;56514;51.816;-0.026;2022-10-31T15:15:13;0.00;0.00;0.00
69222;PMS7003;56514;51.816;-0.026;2022-10-31T15:17:59;0.00;0.00;0.00
69222;PMS7003;56514;51.816;-0.026;2022-10-31T15:20:47;0.00;0.00;0.00
69222;PMS7003;56514;51.816;-0.026;2022-10-31T15:23:34;0.40;0.40;0.00
69222;PMS7003;56514;51.816;-0.026;2022-10-31T15:26:21;0.00;0.00;0.00
69222;PMS7003;56514;51.816;-0.026;2022-10-31T15:29:12;0.00;0.00;0.00
69222;PMS7003;56514;51.816;-0.026;2022-10-31T15:32:00;7.00;7.00;6.00
69222;PMS7003;56514;51.816;-0.026;2022-10-31T15:35:00;6.00;6.00;5.00
69222;PMS7003;56514;51.816;-0.026;2022-10-31T15:37:54;2.00;2.00;2.00
69222;PMS7003;56514;51.816;-0.026;2022-10-31T15:40:40;2.00;2.00;2.00
69222;PMS7003;56514;51.816;-0.026;2022-10-31T15:43:39;2.00;2.00;1.00
69222;PMS7003;56514;51.816;-0.026;2022-10-31T15:46:24;4.00;4.00;3.00
69222;PMS7003;56514;51.816;-0.026;2022-10-31T15:49:15;1.00;1.00;1.00
69222;PMS7003;56514;51.816;-0.026;2022-10-31T15:55:26;1.00;1.00;1.00
69222;PMS7003;56514;51.816;-0.026;2022-10-31T15:58:18;0.50;0.50;0.50
69222;PMS7003;56514;51.816;-0.026;2022-10-31T16:01:04;0.00;0.00;0.00
69222;PMS7003;56514;51.816;-0.026;2022-10-31T16:07:12;0.00;0.00;0.00
69222;PMS7003;56514;51.816;-0.026;2022-10-31T16:10:00;0.00;0.00;0.00
69222;PMS7003;56514;51.816;-0.026;2022-10-31T16:12:46;0.00;0.00;0.00
69222;PMS7003;56514;51.816;-0.026;2022-10-31T16:15:31;0.00;0.00;0.00
69222;PMS7003;56514;51.816;-0.026;2022-10-31T16:18:17;0.00;0.00;0.00
69222;PMS7003;56514;51.816;-0.026;2022-10-31T16:21:03;0.00;0.00;0.00
69222;PMS7003;56514;51.816;-0.026;2022-10-31T16:23:49;1.00;1.00;1.00
69222;PMS7003;56514;51.816;-0.026;2022-10-31T16:26:40;1.00;1.00;0.75
69222;PMS7003;56514;51.816;-0.026;2022-10-31T16:29:42;0.50;0.50;0.50
69222;PMS7003;56514;51.816;-0.026;2022-10-31T16:35:18;0.75;0.75;0.75
69222;PMS7003;56514;51.816;-0.026;2022-10-31T16:38:09;0.25;0.25;0.25
69222;PMS7003;56514;51.816;-0.026;2022-10-31T16:40:54;0.00;0.00;0.00
69222;PMS7003;56514;51.816;-0.026;2022-10-31T16:43:39;1.00;1.00;1.00
69222;PMS7003;56514;51.816;-0.026;2022-10-31T16:46:24;0.00;0.00;0.00
69222;PMS7003;56514;51.816;-0.026;2022-10-31T16:49:11;0.00;0.00;0.00
69222;PMS7003;56514;51.816;-0.026;2022-10-31T16:51:57;0.00;0.00;0.00
69222;PMS7003;56514;51.816;-0.026;2022-10-31T16:54:42;0.00;0.00;0.00
69222;PMS7003;56514;51.816;-0.026;2022-10-31T16:57:27;1.50;0.75;0.50
69222;PMS7003;56514;51.816;-0.026;2022-10-31T17:00:24;0.00;0.00;0.00
69222;PMS7003;56514;51.816;-0.026;2022-10-31T17:03:11;0.00;0.00;0.00
69222;PMS7003;56514;51.816;-0.026;2022-10-31T17:05:56;0.50;0.50;0.50
69222;PMS7003;56514;51.816;-0.026;2022-10-31T17:08:41;1.00;1.00;1.00
69222;PMS7003;56514;51.816;-0.026;2022-10-31T17:11:26;1.00;1.00;1.00
69222;PMS7003;56514;51.816;-0.026;2022-10-31T17:14:11;1.00;1.00;0.00
69222;PMS7003;56514;51.816;-0.026;2022-10-31T17:16:56;2.00;2.00;1.00
69222;PMS7003;56514;51.816;-0.026;2022-10-31T17:19:41;1.00;1.00;1.00
69222;PMS7003;56514;51.816;-0.026;2022-10-31T17:22:26;2.75;2.75;1.75
69222;PMS7003;56514;51.816;-0.026;2022-10-31T17:25:13;1.25;1.25;1.25
69222;PMS7003;56514;51.816;-0.026;2022-10-31T17:28:00;1.00;1.00;1.00
69222;PMS7003;56514;51.816;-0.026;2022-10-31T17:30:45;1.00;1.00;1.00
69222;PMS7003;56514;51.816;-0.026;2022-10-31T17:33:31;0.50;0.50;0.50
69222;PMS7003;56514;51.816;-0.026;2022-10-31T17:36:16;2.00;2.00;1.25
69222;PMS7003;56514;51.816;-0.026;2022-10-31T17:39:01;6.25;6.25;5.00
69222;PMS7003;56514;51.816;-0.026;2022-10-31T17:41:49;3.00;3.00;2.00
69222;PMS7003;56514;51.816;-0.026;2022-10-31T17:44:35;5.00;5.00;3.00
69222;PMS7003;56514;51.816;-0.026;2022-10-31T17:47:19;3.50;3.50;2.75
69222;PMS7003;56514;51.816;-0.026;2022-10-31T17:50:06;6.00;6.00;5.00
69222;PMS7003;56514;51.816;-0.026;2022-10-31T17:52:52;2.75;2.75;2.75
69222;PMS7003;56514;51.816;-0.026;2022-10-31T17:55:37;6.75;6.75;6.00
69222;PMS7003;56514;51.816;-0.026;2022-10-31T17:58:22;9.75;9.00;6.50
69222;PMS7003;56514;51.816;-0.026;2022-10-31T18:01:11;7.00;6.75;6.00
69222;PMS7003;56514;51.816;-0.026;2022-10-31T18:03:58;11.00;10.00;6.50
69222;PMS7003;56514;51.816;-0.026;2022-10-31T18:06:43;13.50;13.50;9.75
69222;PMS7003;56514;51.816;-0.026;2022-10-31T18:09:30;8.75;8.75;5.25
69222;PMS7003;56514;51.816;-0.026;2022-10-31T18:12:14;11.75;11.75;8.00
69222;PMS7003;56514;51.816;-0.026;2022-10-31T18:15:00;9.25;9.25;6.25
69222;PMS7003;56514;51.816;-0.026;2022-10-31T18:17:46;10.25;10.25;8.50
69222;PMS7003;56514;51.816;-0.026;2022-10-31T18:20:30;13.25;13.25;10.25
69222;PMS7003;56514;51.816;-0.026;2022-10-31T18:23:16;12.00;12.00;8.50
69222;PMS7003;56514;51.816;-0.026;2022-10-31T18:26:02;16.75;15.00;10.00
69222;PMS7003;56514;51.816;-0.026;2022-10-31T18:28:48;15.75;15.75;10.75
69222;PMS7003;56514;51.816;-0.026;2022-10-31T18:31:33;15.75;15.50;10.75
69222;PMS7003;56514;51.816;-0.026;2022-10-31T18:34:18;14.75;14.75;10.75
69222;PMS7003;56514;51.816;-0.026;2022-10-31T18:37:03;13.50;13.50;10.50
69222;PMS7003;56514;51.816;-0.026;2022-10-31T18:39:48;15.00;14.25;9.25
69222;PMS7003;56514;51.816;-0.026;2022-10-31T18:42:33;18.75;18.75;13.75
69222;PMS7003;56514;51.816;-0.026;2022-10-31T18:45:18;17.50;17.50;14.00